Time;durP1;ratioP1;P1;durP2;ratioP2;P2;SDS_P1;SDS_P2;PMS_P1;PMS_P2;Temp;Humidity;BMP_temperature;BMP_pressure;BME280_temperature;BME280_humidity;BME280_pressure;Samples;Min_cycle;Max_cycle;Signal;HPM_P1;HPM_P2
2023/10/30 00:00:09;;;;;;;0.30;0.30;;;;;;;;;;6113693;23;20022;-76
2023/10/30 00:02:37;;;;;;;0.40;0.30;;;;;;;;;;6114536;23;20053;-76
2023/10/30 00:05:11;;;;;;;2.38;1.15;;;;;;;;;;6115067;23;20033;-76
2023/10/30 00:07:38;;;;;;;0.55;0.50;;;;;;;;;;6114240;23;20022;-77
2023/10/30 00:10:06;;;;;;;0.63;0.63;;;;;;;;;;6114851;23;20298;-76
2023/10/30 00:12:40;;;;;;;0.95;0.50;;;;;;;;;;6116352;23;20030;-76
2023/10/30 00:15:08;;;;;;;0.38;0.38;;;;;;;;;;6115846;23;20495;-76
2023/10/30 00:17:42;;;;;;;0.50;0.50;;;;;;;;;;6115252;23;20054;-76
2023/10/30 00:20:10;;;;;;;0.60;0.60;;;;;;;;;;6114636;23;20423;-76
2023/10/30 00:22:37;;;;;;;;;;;;;;;;;;6085156;23;20100;-77
2023/10/30 00:25:12;;;;;;;1.65;0.60;;;;;;;;;;6111136;23;19984;-77
2023/10/30 00:27:41;;;;;;;0.50;0.50;;;;;;;;;;6112177;23;20025;-76
2023/10/30 00:30:09;;;;;;;0.50;0.50;;;;;;;;;;6085347;23;20022;-77
2023/10/30 00:32:43;;;;;;;0.55;0.55;;;;;;;;;;6110832;23;20018;-77
2023/10/30 00:35:11;;;;;;;0.60;0.60;;;;;;;;;;6112157;23;20542;-77
2023/10/30 00:37:38;;;;;;;0.75;0.75;;;;;;;;;;6113926;23;20021;-77
2023/10/30 00:40:12;;;;;;;0.45;0.45;;;;;;;;;;6090651;23;20026;-77
2023/10/30 00:42:39;;;;;;;0.57;0.57;;;;;;;;;;6114000;23;20030;-77
2023/10/30 00:45:13;;;;;;;0.55;0.55;;;;;;;;;;6111137;23;20400;-76
2023/10/30 00:47:40;;;;;;;0.60;0.60;;;;;;;;;;6113673;23;20022;-77
2023/10/30 00:50:08;;;;;;;0.55;0.55;;;;;;;;;;6111708;23;20092;-77
2023/10/30 00:52:49;;;;;;;0.30;0.30;;;;;;;;;;6110830;23;20040;-77
2023/10/30 00:55:16;;;;;;;0.80;0.70;;;;;;;;;;6113315;23;20076;-77
2023/10/30 00:57:50;;;;;;;0.50;0.50;;;;;;;;;;6113199;23;20029;-78
2023/10/30 01:00:18;;;;;;;0.50;0.50;;;;;;;;;;6112805;23;20602;-77
2023/10/30 01:02:45;;;;;;;;;;;;;;;;;;6114451;23;20033;-77
2023/10/30 01:05:19;;;;;;;2.35;0.70;;;;;;;;;;6112486;23;20425;-77
2023/10/30 01:07:47;;;;;;;1.17;0.70;;;;;;;;;;6112465;23;20538;-78
2023/10/30 01:10:14;;;;;;;0.80;0.65;;;;;;;;;;6089460;23;20438;-78
2023/10/30 01:12:48;;;;;;;0.98;0.60;;;;;;;;;;6089896;23;20030;-77
2023/10/30 01:15:16;;;;;;;0.70;0.65;;;;;;;;;;6113644;23;20336;-78
2023/10/30 01:17:50;;;;;;;0.70;0.70;;;;;;;;;;6113393;23;20026;-77
2023/10/30 01:20:18;;;;;;;0.85;0.50;;;;;;;;;;6113618;23;20040;-77
2023/10/30 01:22:45;;;;;;;0.55;0.55;;;;;;;;;;6113881;23;20566;-77
2023/10/30 01:25:19;;;;;;;0.60;0.60;;;;;;;;;;6090926;23;20347;-78
2023/10/30 01:27:46;;;;;;;2.15;0.50;;;;;;;;;;6089905;23;20607;-77
2023/10/30 01:30:20;;;;;;;0.45;0.45;;;;;;;;;;6115441;23;20045;-78
2023/10/30 01:32:48;;;;;;;1.52;0.60;;;;;;;;;;6114881;23;20060;-77
2023/10/30 01:35:15;;;;;;;0.60;0.60;;;;;;;;;;6114391;23;20022;-77
2023/10/30 01:37:49;;;;;;;0.57;0.57;;;;;;;;;;6091203;23;20072;-77
2023/10/30 01:40:16;;;;;;;0.52;0.52;;;;;;;;;;6115546;23;20412;-78
2023/10/30 01:42:53;;;;;;;0.50;0.50;;;;;;;;;;6115095;23;20022;-77
2023/10/30 01:45:21;;;;;;;0.57;0.57;;;;;;;;;;6115120;23;20395;-77
2023/10/30 01:47:48;;;;;;;0.55;0.55;;;;;;;;;;6114215;23;20385;-77
2023/10/30 01:50:23;;;;;;;3.00;0.50;;;;;;;;;;6114511;23;20649;-77
2023/10/30 01:52:57;;;;;;;0.40;0.40;;;;;;;;;;6113260;23;20511;-77
2023/10/30 01:55:31;;;;;;;0.30;0.30;;;;;;;;;;6114443;23;20498;-78
2023/10/30 01:57:58;;;;;;;0.63;0.63;;;;;;;;;;6114450;23;20328;-77
2023/10/30 02:00:28;;;;;;;0.73;0.40;;;;;;;;;;6088981;23;20117;-77
2023/10/30 02:03:04;;;;;;;0.60;0.40;;;;;;;;;;6117272;23;20080;-77
2023/10/30 02:05:31;;;;;;;0.47;0.47;;;;;;;;;;6090915;23;20026;-77
2023/10/30 02:08:05;;;;;;;0.57;0.57;;;;;;;;;;6117924;23;20246;-78
2023/10/30 02:10:32;;;;;;;0.77;0.60;;;;;;;;;;6092183;23;20377;-77
2023/10/30 02:13:00;;;;;;;0.40;0.40;;;;;;;;;;6117073;23;20026;-77
2023/10/30 02:15:34;;;;;;;0.50;0.50;;;;;;;;;;6115587;23;20089;-77
2023/10/30 02:18:01;;;;;;;0.80;0.80;;;;;;;;;;6117441;23;20045;-79
2023/10/30 02:20:35;;;;;;;0.70;0.70;;;;;;;;;;6117035;23;20054;-77
2023/10/30 02:23:03;;;;;;;0.65;0.65;;;;;;;;;;6090954;23;20029;-77
2023/10/30 02:25:32;;;;;;;0.50;0.50;;;;;;;;;;6118060;23;20514;-77
2023/10/30 02:28:07;;;;;;;0.50;0.50;;;;;;;;;;6118248;23;20041;-77
2023/10/30 02:30:34;;;;;;;1.23;0.90;;;;;;;;;;6116309;23;20030;-77
2023/10/30 02:33:08;;;;;;;0.45;0.45;;;;;;;;;;6117829;23;20025;-77
2023/10/30 02:35:36;;;;;;;0.60;0.60;;;;;;;;;;6090844;23;20030;-77
2023/10/30 02:38:04;;;;;;;1.00;0.70;;;;;;;;;;6117301;23;20101;-77
2023/10/30 02:40:37;;;;;;;0.57;0.57;;;;;;;;;;6116935;23;20145;-77
2023/10/30 02:43:04;;;;;;;0.52;0.52;;;;;;;;;;6118607;23;20022;-77
2023/10/30 02:45:38;;;;;;;4.72;0.75;;;;;;;;;;6092492;23;20568;-77
2023/10/30 02:48:06;;;;;;;0.60;0.60;;;;;;;;;;6117128;23;20139;-77
2023/10/30 02:50:33;;;;;;;0.65;0.65;;;;;;;;;;6090166;23;20030;-77
2023/10/30 02:53:14;;;;;;;0.52;0.52;;;;;;;;;;6114449;23;20546;-77
2023/10/30 02:55:41;;;;;;;0.55;0.55;;;;;;;;;;6117148;23;20400;-77
2023/10/30 02:58:15;;;;;;;0.80;0.80;;;;;;;;;;6091226;23;20093;-77
2023/10/30 03:00:43;;;;;;;0.70;0.70;;;;;;;;;;6116728;23;20139;-77
2023/10/30 03:03:10;;;;;;;0.43;0.43;;;;;;;;;;6116960;23;20501;-77
2023/10/30 03:05:45;;;;;;;0.60;0.60;;;;;;;;;;6116599;23;20033;-76
2023/10/30 03:08:12;;;;;;;0.50;0.50;;;;;;;;;;6116558;23;20029;-77
2023/10/30 03:10:47;;;;;;;0.70;0.70;;;;;;;;;;6092369;23;20806;-77
2023/10/30 03:13:14;;;;;;;2.08;0.68;;;;;;;;;;6115930;23;20455;-77
2023/10/30 03:15:45;;;;;;;0.95;0.90;;;;;;;;;;6116395;23;20400;-77
2023/10/30 03:18:19;;;;;;;2.25;0.80;;;;;;;;;;6117350;23;20081;-77
2023/10/30 03:20:46;;;;;;;0.68;0.68;;;;;;;;;;6114848;23;20389;-77
2023/10/30 03:23:14;;;;;;;0.60;0.60;;;;;;;;;;6115011;23;20046;-77
2023/10/30 03:25:48;;;;;;;1.30;0.80;;;;;;;;;;6115904;23;20029;-77
2023/10/30 03:28:21;;;;;;;2.47;0.82;;;;;;;;;;6114493;23;20526;-77
2023/10/30 03:30:49;;;;;;;1.08;1.00;;;;;;;;;;6115592;23;20022;-77
2023/10/30 03:33:16;;;;;;;2.58;0.75;;;;;;;;;;6115120;23;20105;-77
2023/10/30 03:35:50;;;;;;;1.58;0.70;;;;;;;;;;6113159;23;20111;-77
2023/10/30 03:38:17;;;;;;;0.80;0.77;;;;;;;;;;6113947;23;20105;-77
2023/10/30 03:40:52;;;;;;;1.85;0.90;;;;;;;;;;6116049;23;20033;-77
2023/10/30 03:43:19;;;;;;;2.78;0.95;;;;;;;;;;6089958;23;20029;-77
2023/10/30 03:45:46;;;;;;;1.60;0.95;;;;;;;;;;6115216;23;20052;-77
2023/10/30 03:48:20;;;;;;;1.40;0.95;;;;;;;;;;6114481;23;20408;-77
2023/10/30 03:50:51;;;;;;;0.70;0.63;;;;;;;;;;6088550;23;20022;-77
2023/10/30 03:53:18;;;;;;;1.30;0.98;;;;;;;;;;6114197;23;20026;-77
2023/10/30 03:55:59;;;;;;;0.80;0.80;;;;;;;;;;6115573;23;20085;-77
2023/10/30 03:58:26;;;;;;;0.80;0.80;;;;;;;;;;6114894;23;20021;-76
2023/10/30 04:01:07;;;;;;;1.00;0.90;;;;;;;;;;6114274;23;20022;-77
2023/10/30 04:03:35;;;;;;;1.08;0.73;;;;;;;;;;6115875;23;20033;-77
2023/10/30 04:06:09;;;;;;;2.83;0.75;;;;;;;;;;6115101;23;20064;-77
2023/10/30 04:08:36;;;;;;;1.17;0.90;;;;;;;;;;6115500;23;20021;-77
2023/10/30 04:11:12;;;;;;;1.98;0.90;;;;;;;;;;6089662;23;20052;-77
2023/10/30 04:13:46;;;;;;;1.90;1.05;;;;;;;;;;6115518;23;20025;-77
2023/10/30 04:16:18;;;;;;;1.20;1.10;;;;;;;;;;6114940;23;20025;-77
2023/10/30 04:18:53;;;;;;;2.45;0.80;;;;;;;;;;6090772;23;20421;-77
2023/10/30 04:21:21;;;;;;;1.25;1.02;;;;;;;;;;6114641;23;20030;-77
2023/10/30 04:23:48;;;;;;;1.02;0.82;;;;;;;;;;6115055;23;20467;-78
2023/10/30 04:26:22;;;;;;;1.05;0.93;;;;;;;;;;6114512;23;20026;-77
2023/10/30 04:28:49;;;;;;;1.95;1.10;;;;;;;;;;6114767;23;20484;-77
2023/10/30 04:31:23;;;;;;;2.97;0.95;;;;;;;;;;6115204;23;20545;-77
2023/10/30 04:33:50;;;;;;;1.77;0.90;;;;;;;;;;6113656;23;20535;-77
2023/10/30 04:36:18;;;;;;;1.75;0.88;;;;;;;;;;6117234;23;20032;-77
2023/10/30 04:38:52;;;;;;;1.00;0.90;;;;;;;;;;6115446;23;20018;-77
2023/10/30 04:41:19;;;;;;;1.13;1.00;;;;;;;;;;6118001;23;20395;-77
2023/10/30 04:43:53;;;;;;;0.55;0.55;;;;;;;;;;6092452;23;20022;-77
2023/10/30 04:46:20;;;;;;;3.13;0.93;;;;;;;;;;6115987;23;20029;-78
2023/10/30 04:48:48;;;;;;;0.80;0.80;;;;;;;;;;6090120;23;20030;-77
2023/10/30 04:51:21;;;;;;;1.98;0.88;;;;;;;;;;6116843;23;20076;-77
2023/10/30 04:53:55;;;;;;;2.65;0.80;;;;;;;;;;6111832;23;20475;-77
2023/10/30 04:56:29;;;;;;;0.90;0.73;;;;;;;;;;6113964;23;20030;-77
2023/10/30 04:58:56;;;;;;;0.93;0.85;;;;;;;;;;6114564;23;20085;-77
2023/10/30 05:01:23;;;;;;;0.80;0.80;;;;;;;;;;6114286;23;20452;-78
2023/10/30 05:03:57;;;;;;;1.33;0.57;;;;;;;;;;6114063;23;20467;-77
2023/10/30 05:06:25;;;;;;;1.42;0.88;;;;;;;;;;6113788;23;20029;-77
2023/10/30 05:08:59;;;;;;;0.80;0.80;;;;;;;;;;6088698;23;20026;-77
2023/10/30 05:11:27;;;;;;;0.73;0.50;;;;;;;;;;6111645;23;20037;-77
2023/10/30 05:13:54;;;;;;;1.00;0.70;;;;;;;;;;6113911;23;20081;-77
2023/10/30 05:16:28;;;;;;;0.73;0.73;;;;;;;;;;6114586;23;20109;-78
2023/10/30 05:18:55;;;;;;;0.70;0.70;;;;;;;;;;6112996;23;20036;-78
2023/10/30 05:21:29;;;;;;;0.77;0.77;;;;;;;;;;6113408;23;20026;-78
2023/10/30 05:23:56;;;;;;;0.85;0.80;;;;;;;;;;6114303;23;20426;-77
2023/10/30 05:26:24;;;;;;;0.90;0.90;;;;;;;;;;6112726;23;20032;-77
2023/10/30 05:28:58;;;;;;;1.30;0.95;;;;;;;;;;6113906;23;20057;-76
2023/10/30 05:31:26;;;;;;;2.65;1.45;;;;;;;;;;6114163;23;20078;-77
2023/10/30 05:34:01;;;;;;;0.63;0.63;;;;;;;;;;6113201;23;20025;-77
2023/10/30 05:36:28;;;;;;;1.67;0.85;;;;;;;;;;6114870;23;20530;-77
2023/10/30 05:38:55;;;;;;;2.20;0.70;;;;;;;;;;6116742;23;20245;-77
2023/10/30 05:41:29;;;;;;;1.10;0.90;;;;;;;;;;6114797;23;20442;-78
2023/10/30 05:43:57;;;;;;;2.90;1.10;;;;;;;;;;6117006;23;20207;-77
2023/10/30 05:46:31;;;;;;;1.10;1.00;;;;;;;;;;6091251;23;20030;-77
2023/10/30 05:48:59;;;;;;;2.67;1.10;;;;;;;;;;6113566;23;20022;-77
2023/10/30 05:51:26;;;;;;;1.48;0.90;;;;;;;;;;6114653;23;20351;-78
2023/10/30 05:54:07;;;;;;;1.05;0.95;;;;;;;;;;6055536;23;20019;-77
2023/10/30 05:56:34;;;;;;;1.30;1.20;;;;;;;;;;6055783;23;20334;-77
2023/10/30 05:59:08;;;;;;;1.50;1.13;;;;;;;;;;6056741;23;20027;-77
2023/10/30 06:01:35;;;;;;;5.65;1.40;;;;;;;;;;6055614;23;20033;-77
2023/10/30 06:04:02;;;;;;;2.10;1.02;;;;;;;;;;6056665;23;20022;-77
2023/10/30 06:06:36;;;;;;;1.58;1.10;;;;;;;;;;6053353;23;20099;-77
2023/10/30 06:09:03;;;;;;;1.40;1.30;;;;;;;;;;6055247;23;20295;-77
2023/10/30 06:11:37;;;;;;;2.08;1.40;;;;;;;;;;6056403;23;20027;-77
2023/10/30 06:14:04;;;;;;;2.30;1.23;;;;;;;;;;6057433;23;20035;-77
2023/10/30 06:16:39;;;;;;;2.80;1.40;;;;;;;;;;6058834;23;20031;-76
2023/10/30 06:19:13;;;;;;;1.90;1.50;;;;;;;;;;6059220;23;20023;-77
2023/10/30 06:21:43;;;;;;;1.65;1.52;;;;;;;;;;6059198;23;20053;-77
2023/10/30 06:24:11;;;;;;;2.08;1.70;;;;;;;;;;6058088;23;20027;-77
2023/10/30 06:26:46;;;;;;;1.58;1.40;;;;;;;;;;6059155;23;20129;-77
2023/10/30 06:29:13;;;;;;;1.30;1.20;;;;;;;;;;6058481;23;20078;-77
2023/10/30 06:31:40;;;;;;;2.80;1.27;;;;;;;;;;6059063;23;20030;-78
2023/10/30 06:34:14;;;;;;;3.30;1.52;;;;;;;;;;6057780;23;20074;-77
2023/10/30 06:36:42;;;;;;;1.73;1.60;;;;;;;;;;6058543;23;20019;-77
2023/10/30 06:39:20;;;;;;;1.25;1.15;;;;;;;;;;6058483;23;20102;-78
2023/10/30 06:41:55;;;;;;;2.63;1.48;;;;;;;;;;6058202;23;20393;-77
2023/10/30 06:44:30;;;;;;;1.42;1.33;;;;;;;;;;6057581;23;20210;-77
2023/10/30 06:46:58;;;;;;;3.00;1.45;;;;;;;;;;6058035;23;20034;-76
2023/10/30 06:49:32;;;;;;;1.40;1.30;;;;;;;;;;6059416;23;20030;-77
2023/10/30 06:52:06;;;;;;;1.77;1.60;;;;;;;;;;6063924;23;20702;-78
2023/10/30 06:54:47;;;;;;;2.30;1.80;;;;;;;;;;6116511;23;20294;-77
2023/10/30 06:57:14;;;;;;;2.08;1.58;;;;;;;;;;6117121;23;20385;-77
2023/10/30 06:59:52;;;;;;;2.53;2.05;;;;;;;;;;6115971;23;20097;-77
2023/10/30 07:02:20;;;;;;;2.30;1.85;;;;;;;;;;6116114;23;20126;-77
2023/10/30 07:04:47;;;;;;;2.55;2.00;;;;;;;;;;6116344;23;20053;-77
2023/10/30 07:07:21;;;;;;;3.35;2.20;;;;;;;;;;6092653;23;20024;-77
2023/10/30 07:09:50;;;;;;;3.20;2.08;;;;;;;;;;6116250;23;20502;-77
2023/10/30 07:12:24;;;;;;;2.60;2.00;;;;;;;;;;6115120;23;20040;-77
2023/10/30 07:14:51;;;;;;;3.75;2.40;;;;;;;;;;6115887;23;20061;-77
2023/10/30 07:17:28;;;;;;;2.05;1.80;;;;;;;;;;6115982;23;20093;-77
2023/10/30 07:20:03;;;;;;;2.05;1.85;;;;;;;;;;6115958;23;20037;-77
2023/10/30 07:22:30;;;;;;;3.03;2.10;;;;;;;;;;6115271;23;20352;-78
2023/10/30 07:25:04;;;;;;;2.75;2.10;;;;;;;;;;6116708;23;20329;-77
2023/10/30 07:27:31;;;;;;;1.95;1.48;;;;;;;;;;6115098;23;20081;-77
2023/10/30 07:30:05;;;;;;;2.38;1.83;;;;;;;;;;6116274;23;20026;-77
2023/10/30 07:32:32;;;;;;;3.17;1.52;;;;;;;;;;6089810;23;20061;-77
2023/10/30 07:35:00;;;;;;;2.30;2.08;;;;;;;;;;6115792;23;20224;-77
2023/10/30 07:37:35;;;;;;;2.28;1.50;;;;;;;;;;6117129;23;20081;-77
2023/10/30 07:40:03;;;;;;;4.82;1.58;;;;;;;;;;6114922;23;20024;-78
2023/10/30 07:42:37;;;;;;;1.60;1.40;;;;;;;;;;6116103;23;20088;-77
2023/10/30 07:45:05;;;;;;;1.50;1.40;;;;;;;;;;6115756;23;20029;-77
2023/10/30 07:47:32;;;;;;;2.10;1.55;;;;;;;;;;6114175;23;20025;-77
2023/10/30 07:50:11;;;;;;;2.50;1.58;;;;;;;;;;6116408;23;20030;-77
2023/10/30 07:52:38;;;;;;;;;;;;;;;;;;6114771;23;20052;-77
2023/10/30 07:55:19;;;;;;;2.47;1.60;;;;;;;;;;6115852;23;19921;-77
2023/10/30 07:57:47;;;;;;;2.97;1.65;;;;;;;;;;6115004;23;20538;-77
2023/10/30 08:00:21;;;;;;;3.03;1.50;;;;;;;;;;6115665;23;20026;-77
2023/10/30 08:02:55;;;;;;;4.28;1.35;;;;;;;;;;6115182;23;20076;-77
2023/10/30 08:05:23;;;;;;;2.78;1.55;;;;;;;;;;6116846;23;20029;-77
2023/10/30 08:07:50;;;;;;;2.38;1.45;;;;;;;;;;6088982;23;20831;-77
2023/10/30 08:10:24;;;;;;;2.97;1.50;;;;;;;;;;6115621;23;20026;-77
2023/10/30 08:12:52;;;;;;;5.07;1.77;;;;;;;;;;6114703;23;20656;-77
2023/10/30 08:15:26;;;;;;;2.33;1.63;;;;;;;;;;6114981;23;20045;-76
2023/10/30 08:17:53;;;;;;;3.75;1.65;;;;;;;;;;6116070;23;20344;-77
2023/10/30 08:20:20;;;;;;;2.92;1.60;;;;;;;;;;6089549;23;20363;-77
2023/10/30 08:22:54;;;;;;;4.50;1.65;;;;;;;;;;6090759;23;20096;-77
2023/10/30 08:25:21;;;;;;;2.08;1.58;;;;;;;;;;6115424;23;20400;-77
2023/10/30 08:28:00;;;;;;;2.75;1.58;;;;;;;;;;6115357;23;20092;-78
2023/10/30 08:30:27;;;;;;;1.80;1.48;;;;;;;;;;6114668;23;20351;-78
2023/10/30 08:32:54;;;;;;;4.05;1.80;;;;;;;;;;6115525;23;20100;-77
2023/10/30 08:35:28;;;;;;;5.80;1.52;;;;;;;;;;6115275;23;20030;-77
2023/10/30 08:37:57;;;;;;;2.67;1.60;;;;;;;;;;6090100;23;20471;-78
2023/10/30 08:40:31;;;;;;;6.57;1.85;;;;;;;;;;6091590;23;20022;-78
2023/10/30 08:42:58;;;;;;;2.28;1.50;;;;;;;;;;6115534;23;20470;-77
2023/10/30 08:45:26;;;;;;;3.67;1.60;;;;;;;;;;6114919;23;20526;-77
2023/10/30 08:48:00;;;;;;;3.40;1.52;;;;;;;;;;6115513;23;20049;-78
2023/10/30 08:50:43;;;;;;;2.63;1.20;;;;;;;;;;6115810;23;20041;-78
2023/10/30 08:53:24;;;;;;;2.28;1.42;;;;;;;;;;6113674;23;20030;-77
2023/10/30 08:55:51;;;;;;;2.03;1.10;;;;;;;;;;6115834;23;20650;-77
2023/10/30 08:58:28;;;;;;;2.00;1.20;;;;;;;;;;6114865;23;20032;-77
2023/10/30 09:00:55;;;;;;;2.05;1.35;;;;;;;;;;6116214;23;20025;-77
2023/10/30 09:03:22;;;;;;;3.05;1.13;;;;;;;;;;6089515;23;20141;-78
2023/10/30 09:05:57;;;;;;;2.05;1.30;;;;;;;;;;6116978;23;20355;-77
2023/10/30 09:08:24;;;;;;;3.67;1.27;;;;;;;;;;6116784;23;20033;-77
2023/10/30 09:10:52;;;;;;;1.10;0.88;;;;;;;;;;6116465;23;20026;-77
2023/10/30 09:13:26;;;;;;;2.08;1.02;;;;;;;;;;6116329;23;20026;-77
2023/10/30 09:15:53;;;;;;;1.80;0.95;;;;;;;;;;6115786;23;20044;-77
2023/10/30 09:18:27;;;;;;;1.35;0.90;;;;;;;;;;6114464;23;20093;-77
2023/10/30 09:20:55;;;;;;;1.65;0.88;;;;;;;;;;6116193;23;20471;-77
2023/10/30 09:23:23;;;;;;;0.63;0.63;;;;;;;;;;6114870;23;20092;-77
2023/10/30 09:25:57;;;;;;;0.70;0.70;;;;;;;;;;6114861;23;20022;-77
2023/10/30 09:28:25;;;;;;;3.35;0.70;;;;;;;;;;6115679;23;20045;-77
2023/10/30 09:31:00;;;;;;;1.80;0.70;;;;;;;;;;6115641;23;20022;-77
2023/10/30 09:33:27;;;;;;;;;;;;;;;;;;6114662;23;20152;-77
2023/10/30 09:35:54;;;;;;;0.60;0.60;;;;;;;;;;6115997;23;19921;-77
2023/10/30 09:38:28;;;;;;;0.40;0.40;;;;;;;;;;6114535;23;20412;-78
2023/10/30 09:41:06;;;;;;;3.05;0.80;;;;;;;;;;6115324;23;20030;-78
2023/10/30 09:43:40;;;;;;;1.30;0.75;;;;;;;;;;6114580;23;20026;-77
2023/10/30 09:46:07;;;;;;;;;;;;;;;;;;6116544;23;20106;-77
2023/10/30 09:48:37;;;;;;;3.83;0.60;;;;;;;;;;6114457;23;19960;-78
2023/10/30 09:51:11;;;;;;;2.25;0.60;;;;;;;;;;6114690;23;20029;-78
2023/10/30 09:53:38;;;;;;;;;;;;;;;;;;6113524;23;20022;-78
2023/10/30 09:56:12;;;;;;;0.47;0.47;;;;;;;;;;6115195;23;20470;-77
2023/10/30 09:58:40;;;;;;;1.40;0.85;;;;;;;;;;6088941;23;20034;-77
2023/10/30 10:01:07;;;;;;;0.73;0.73;;;;;;;;;;6115793;23;20388;-77
2023/10/30 10:03:42;;;;;;;1.92;0.45;;;;;;;;;;6113429;23;20037;-78
2023/10/30 10:06:10;;;;;;;;;;;;;;;;;;6114993;23;20609;-78
2023/10/30 10:08:43;;;;;;;0.55;0.55;;;;;;;;;;6115128;23;19968;-77
2023/10/30 10:11:10;;;;;;;1.15;1.02;;;;;;;;;;6115176;23;20333;-78
2023/10/30 10:13:40;;;;;;;1.10;0.90;;;;;;;;;;6113326;23;20030;-78
2023/10/30 10:16:31;;;;;;;1.10;0.77;;;;;;;;;;6115163;23;20373;-78
2023/10/30 10:18:58;;;;;;;1.40;0.80;;;;;;;;;;6113069;23;20408;-77
2023/10/30 10:21:47;;;;;;;4.05;1.30;;;;;;;;;;6114048;23;20101;-77
2023/10/30 10:24:32;;;;;;;3.58;1.17;;;;;;;;;;6114909;23;20510;-77
2023/10/30 10:27:06;;;;;;;2.80;0.82;;;;;;;;;;6116438;23;20025;-77
2023/10/30 10:29:40;;;;;;;4.15;1.08;;;;;;;;;;6116788;23;20028;-77
2023/10/30 10:32:07;;;;;;;1.10;0.80;;;;;;;;;;6116799;23;20030;-77
2023/10/30 10:34:35;;;;;;;3.30;0.95;;;;;;;;;;6091272;23;20030;-77
2023/10/30 10:37:18;;;;;;;1.55;1.10;;;;;;;;;;6115648;23;20511;-77
2023/10/30 10:39:49;;;;;;;1.45;0.93;;;;;;;;;;6089795;23;20105;-78
2023/10/30 10:42:25;;;;;;;1.30;1.00;;;;;;;;;;6116232;23;20026;-77
2023/10/30 10:44:54;;;;;;;2.10;0.88;;;;;;;;;;6115710;23;20464;-78
2023/10/30 10:47:22;;;;;;;2.22;0.82;;;;;;;;;;6090243;23;20033;-77
2023/10/30 10:49:57;;;;;;;1.08;0.90;;;;;;;;;;6116319;23;20404;-78
2023/10/30 10:52:26;;;;;;;1.00;0.85;;;;;;;;;;6088599;23;20029;-77
2023/10/30 10:55:07;;;;;;;1.38;1.10;;;;;;;;;;6091344;23;20026;-77
2023/10/30 10:57:41;;;;;;;1.30;1.10;;;;;;;;;;6089968;23;20026;-77
2023/10/30 11:00:16;;;;;;;0.98;0.80;;;;;;;;;;6116500;23;20061;-77
2023/10/30 11:02:46;;;;;;;4.45;0.85;;;;;;;;;;6115793;23;20203;-77
2023/10/30 11:05:14;;;;;;;1.10;0.93;;;;;;;;;;6116232;23;20030;-78
2023/10/30 11:07:51;;;;;;;0.98;0.90;;;;;;;;;;6116338;23;20026;-77
2023/10/30 11:10:32;;;;;;;1.50;0.82;;;;;;;;;;6116669;23;20025;-78
2023/10/30 11:13:19;;;;;;;2.42;0.80;;;;;;;;;;6115563;23;20455;-78
2023/10/30 11:15:49;;;;;;;1.90;1.10;;;;;;;;;;6116526;23;20053;-77
2023/10/30 11:18:24;;;;;;;3.45;0.80;;;;;;;;;;6091030;23;20212;-78
2023/10/30 11:21:17;;;;;;;1.73;1.00;;;;;;;;;;6093075;23;20025;-78
2023/10/30 11:23:54;;;;;;;1.30;0.90;;;;;;;;;;6116721;23;20499;-77
2023/10/30 11:26:36;;;;;;;1.23;1.00;;;;;;;;;;6116738;23;20028;-78
2023/10/30 11:29:15;;;;;;;1.95;0.90;;;;;;;;;;6092127;23;20085;-77
2023/10/30 11:31:52;;;;;;;1.25;0.90;;;;;;;;;;6115209;23;20368;-77
2023/10/30 11:34:33;;;;;;;1.27;0.70;;;;;;;;;;6115498;23;20061;-77
2023/10/30 11:37:23;;;;;;;1.00;0.88;;;;;;;;;;6114052;23;20487;-78
2023/10/30 11:39:58;;;;;;;1.08;0.98;;;;;;;;;;6116324;23;20076;-77
2023/10/30 11:42:25;;;;;;;1.77;0.90;;;;;;;;;;6088925;23;20029;-78
2023/10/30 11:44:54;;;;;;;1.27;1.02;;;;;;;;;;6116735;23;20078;-77
2023/10/30 11:47:27;;;;;;;2.10;0.77;;;;;;;;;;6115957;23;20022;-77
2023/10/30 11:49:58;;;;;;;1.77;1.15;;;;;;;;;;6116309;23;20033;-77
2023/10/30 11:52:42;;;;;;;3.00;0.82;;;;;;;;;;6113656;23;20037;-78
2023/10/30 11:55:19;;;;;;;2.60;1.27;;;;;;;;;;6115627;23;20022;-78
2023/10/30 11:57:52;;;;;;;3.05;1.00;;;;;;;;;;6114601;23;20081;-77
2023/10/30 12:00:20;;;;;;;3.35;1.30;;;;;;;;;;6115529;23;20025;-77
2023/10/30 12:02:55;;;;;;;1.65;1.40;;;;;;;;;;6091357;23;20029;-79
2023/10/30 12:05:22;;;;;;;;;;;;;;;;;;6116736;23;20045;-78
2023/10/30 12:07:49;;;;;;;2.05;1.30;;;;;;;;;;6114705;23;19921;-77
2023/10/30 12:10:24;;;;;;;2.63;1.83;;;;;;;;;;6092302;23;20058;-75
2023/10/30 12:12:51;;;;;;;2.28;1.60;;;;;;;;;;6114161;23;20033;-78
2023/10/30 12:15:19;;;;;;;2.55;1.60;;;;;;;;;;6115650;23;20049;-78
2023/10/30 12:17:52;;;;;;;3.05;1.65;;;;;;;;;;6115696;23;20025;-77
2023/10/30 12:20:21;;;;;;;3.30;2.10;;;;;;;;;;6115388;23;20029;-77
2023/10/30 12:22:55;;;;;;;22.83;3.05;;;;;;;;;;6114691;23;20334;-77
2023/10/30 12:25:22;;;;;;;2.50;1.90;;;;;;;;;;6090215;23;20486;-77
2023/10/30 12:27:50;;;;;;;7.03;2.58;;;;;;;;;;6115111;23;20033;-75
2023/10/30 12:30:24;;;;;;;3.33;2.03;;;;;;;;;;6114273;23;20455;-75
2023/10/30 12:32:57;;;;;;;4.97;2.63;;;;;;;;;;6115469;23;20037;-75
2023/10/30 12:35:30;;;;;;;12.30;2.70;;;;;;;;;;6114830;23;20022;-76
2023/10/30 12:37:58;;;;;;;6.03;1.92;;;;;;;;;;6114669;23;20022;-75
2023/10/30 12:40:25;;;;;;;5.53;2.30;;;;;;;;;;6115117;23;20081;-75
2023/10/30 12:43:00;;;;;;;5.28;2.53;;;;;;;;;;6114703;23;20413;-75
2023/10/30 12:45:28;;;;;;;7.55;3.17;;;;;;;;;;6115035;23;20026;-75
2023/10/30 12:48:01;;;;;;;7.13;2.20;;;;;;;;;;6115677;23;20132;-75
2023/10/30 12:50:29;;;;;;;8.98;2.47;;;;;;;;;;6115485;23;20089;-74
2023/10/30 12:52:56;;;;;;;5.40;2.10;;;;;;;;;;6110435;23;20025;-75
2023/10/30 12:55:36;;;;;;;4.65;2.10;;;;;;;;;;6115125;23;20324;-76
2023/10/30 12:58:03;;;;;;;3.67;2.47;;;;;;;;;;6114952;23;20093;-78
2023/10/30 13:00:37;;;;;;;5.90;2.33;;;;;;;;;;6113323;23;20493;-77
2023/10/30 13:03:05;;;;;;;;;;;;;;;;;;6114920;23;20459;-76
2023/10/30 13:05:32;;;;;;;22.70;2.83;;;;;;;;;;6115577;23;20003;-76
2023/10/30 13:08:06;;;;;;;5.68;2.20;;;;;;;;;;6115039;23;20030;-75
2023/10/30 13:10:34;;;;;;;5.15;2.20;;;;;;;;;;6114875;23;20459;-77
2023/10/30 13:13:09;;;;;;;5.57;2.40;;;;;;;;;;6114575;23;20045;-77
2023/10/30 13:15:36;;;;;;;3.50;2.45;;;;;;;;;;6115839;23;20030;-77
2023/10/30 13:18:03;;;;;;;11.05;3.20;;;;;;;;;;6114345;23;20033;-78
2023/10/30 13:20:40;;;;;;;3.55;2.63;;;;;;;;;;6115303;23;20099;-77
2023/10/30 13:23:07;;;;;;;4.53;2.35;;;;;;;;;;6114998;23;20033;-77
2023/10/30 13:25:41;;;;;;;4.63;2.53;;;;;;;;;;6113335;23;20040;-77
2023/10/30 13:28:09;;;;;;;;;;;;;;;;;;6115024;23;20017;-77
2023/10/30 13:30:36;;;;;;;4.90;2.38;;;;;;;;;;6115447;23;19925;-77
2023/10/30 13:33:11;;;;;;;6.70;2.65;;;;;;;;;;6114340;23;20055;-75
2023/10/30 13:35:38;;;;;;;;;;;;;;;;;;6117352;23;20022;-75
2023/10/30 13:38:11;;;;;;;3.53;2.08;;;;;;;;;;6091694;23;19924;-75
2023/10/30 13:40:39;;;;;;;2.95;2.20;;;;;;;;;;6114513;23;20514;-75
2023/10/30 13:43:06;;;;;;;6.30;2.50;;;;;;;;;;6114634;23;20025;-75
2023/10/30 13:45:40;;;;;;;4.43;2.35;;;;;;;;;;6114572;23;20033;-75
2023/10/30 13:48:08;;;;;;;;;;;;;;;;;;6115385;23;20105;-76
2023/10/30 13:50:42;;;;;;;8.25;1.85;;;;;;;;;;6115380;23;19928;-75
2023/10/30 13:53:09;;;;;;;;;;;;;;;;;;6114468;23;20026;-75
2023/10/30 13:55:42;;;;;;;29.23;3.83;;;;;;;;;;6114665;23;20000;-75
2023/10/30 13:58:15;;;;;;;12.48;2.80;;;;;;;;;;6116251;23;20025;-75
2023/10/30 14:00:42;;;;;;;68.53;4.60;;;;;;;;;;6117022;23;20034;-75
2023/10/30 14:03:17;;;;;;;6.18;2.00;;;;;;;;;;6091965;23;20427;-75
2023/10/30 14:05:44;;;;;;;;;;;;;;;;;;6117522;23;20022;-75
2023/10/30 14:08:11;;;;;;;67.53;4.50;;;;;;;;;;6116287;23;19972;-75
2023/10/30 14:10:45;;;;;;;16.48;2.80;;;;;;;;;;6115006;23;20063;-75
2023/10/30 14:13:13;;;;;;;3.22;2.13;;;;;;;;;;6117246;23;20105;-75
2023/10/30 14:15:46;;;;;;;6.35;2.10;;;;;;;;;;6117071;23;20080;-78
2023/10/30 14:18:14;;;;;;;;;;;;;;;;;;6117148;23;20024;-78
2023/10/30 14:20:41;;;;;;;77.82;5.25;;;;;;;;;;6089545;23;20230;-78
2023/10/30 14:23:15;;;;;;;8.63;2.20;;;;;;;;;;6117811;23;20108;-78
2023/10/30 14:25:43;;;;;;;7.75;2.85;;;;;;;;;;6115212;23;20519;-77
2023/10/30 14:28:16;;;;;;;11.95;3.55;;;;;;;;;;6116267;23;20592;-76
2023/10/30 14:30:44;;;;;;;12.70;3.28;;;;;;;;;;6116696;23;20506;-75
2023/10/30 14:33:11;;;;;;;23.27;3.92;;;;;;;;;;6116441;23;20034;-76
2023/10/30 14:35:46;;;;;;;9.48;2.85;;;;;;;;;;6092454;23;20396;-76
2023/10/30 14:38:20;;;;;;;7.40;3.55;;;;;;;;;;6092605;23;20030;-76
2023/10/30 14:40:47;;;;;;;83.32;6.47;;;;;;;;;;6115922;23;20356;-75
2023/10/30 14:43:14;;;;;;;7.25;2.60;;;;;;;;;;6115401;23;20030;-76
2023/10/30 14:45:48;;;;;;;18.45;3.50;;;;;;;;;;6092141;23;20029;-75
2023/10/30 14:48:16;;;;;;;26.45;5.93;;;;;;;;;;6115846;23;20026;-76
2023/10/30 14:50:54;;;;;;;28.15;6.22;;;;;;;;;;6116622;23;20030;-77
2023/10/30 14:53:28;;;;;;;70.05;10.65;;;;;;;;;;6114075;23;20387;-77
2023/10/30 14:56:10;;;;;;;21.58;6.95;;;;;;;;;;6116066;23;20455;-76
2023/10/30 14:58:38;;;;;;;24.48;7.32;;;;;;;;;;6114980;23;20037;-77
2023/10/30 15:01:11;;;;;;;33.33;7.93;;;;;;;;;;6115957;23;20124;-76
2023/10/30 15:03:45;;;;;;;44.47;10.48;;;;;;;;;;6090560;23;20036;-77
2023/10/30 15:06:13;;;;;;;43.45;10.30;;;;;;;;;;6089114;23;20417;-77
2023/10/30 15:08:46;;;;;;;36.72;11.20;;;;;;;;;;6114922;23;20077;-77